Time;durP1;ratioP1;P1;durP2;ratioP2;P2;SDS_P1;SDS_P2;PMS_P1;PMS_P2;Temp;Humidity;BMP_temperature;BMP_pressure;BME280_temperature;BME280_humidity;BME280_pressure;Samples;Min_cycle;Max_cycle;Signal;HPM_P1;HPM_P2
2021/12/28 00:01:24;;;;;;;95.90;36.88;;;;;;;-6.83;75.82;97883.66;5103621;28;21039;-64
2021/12/28 00:03:51;;;;;;;98.70;35.85;;;;;;;-6.80;75.71;97889.41;5102704;28;20070;-64
2021/12/28 00:06:17;;;;;;;99.90;37.65;;;;;;;-6.81;76.02;97887.75;5104709;27;20051;-64
2021/12/28 00:08:43;;;;;;;89.10;35.53;;;;;;;-6.77;75.80;97889.00;5105097;28;20113;-69
2021/12/28 00:11:09;;;;;;;86.10;34.25;;;;;;;-6.74;76.38;97887.81;5104585;28;20061;-65
2021/12/28 00:13:36;;;;;;;85.18;31.40;;;;;;;-6.73;75.78;97884.13;5084399;28;20480;-65
2021/12/28 00:18:36;;;;;;;94.93;36.50;;;;;;;-6.74;76.45;97891.28;5104781;28;20043;-64
2021/12/28 00:21:04;;;;;;;87.18;33.00;;;;;;;-6.71;76.01;97876.72;5087117;28;20502;-65
2021/12/28 00:23:37;;;;;;;99.90;36.25;;;;;;;-6.65;76.40;97888.47;5104292;28;20039;-64
2021/12/28 00:26:03;;;;;;;89.10;35.45;;;;;;;-6.55;76.06;97888.91;5104712;28;20105;-64
2021/12/28 00:28:29;;;;;;;86.85;32.17;;;;;;;-6.49;76.55;97879.28;5103816;28;20039;-65
2021/12/28 00:30:54;;;;;;;90.78;35.05;;;;;;;-6.44;76.31;97884.84;5105682;28;20032;-64
2021/12/28 00:33:23;;;;;;;98.28;36.45;;;;;;;-6.35;76.24;97872.97;5104452;27;20024;-64
2021/12/28 00:35:48;;;;;;;107.85;39.72;;;;;;;-6.30;76.25;97883.00;5105201;28;20102;-64
2021/12/28 00:38:19;;;;;;;96.35;36.35;;;;;;;-6.27;76.20;97874.63;5105352;28;20051;-64
2021/12/28 00:40:47;;;;;;;;;;;;;;;-6.26;76.20;97886.94;5106573;28;20032;-66
2021/12/28 00:43:13;;;;;;;84.47;31.40;;;;;;;-6.22;76.26;97896.19;5104672;28;20742;-65
2021/12/28 00:45:39;;;;;;;90.40;33.08;;;;;;;-6.18;76.41;97891.25;5105639;28;20521;-65
2021/12/28 00:48:05;;;;;;;105.22;37.10;;;;;;;-6.12;75.87;97885.09;5104578;28;20028;-65
2021/12/28 00:50:31;;;;;;;91.78;32.78;;;;;;;-6.07;76.04;97890.66;5105337;28;20034;-64
2021/12/28 00:52:56;;;;;;;78.95;30.65;;;;;;;-6.05;76.47;97890.44;5105673;28;20693;-64
2021/12/28 00:55:23;;;;;;;102.18;36.92;;;;;;;-6.03;76.10;97896.41;5104682;28;20028;-65
2021/12/28 00:57:49;;;;;;;86.15;34.25;;;;;;;-6.04;75.68;97884.91;5105478;28;20146;-65
2021/12/28 01:00:22;;;;;;;85.05;33.85;;;;;;;-6.07;75.69;97888.00;5105530;28;20771;-65
2021/12/28 01:02:49;;;;;;;83.25;31.48;;;;;;;-6.07;76.00;97890.66;5105157;28;20420;-64
2021/12/28 01:05:15;;;;;;;78.03;30.00;;;;;;;-6.10;76.11;97890.22;5103407;28;20071;-64
2021/12/28 01:07:40;;;;;;;71.15;25.98;;;;;;;-6.13;75.67;97894.13;5103404;28;20027;-64
2021/12/28 01:10:10;;;;;;;83.18;34.67;;;;;;;-6.12;75.68;97874.44;5104089;28;20039;-64
2021/12/28 01:12:36;;;;;;;88.10;33.22;;;;;;;-6.08;76.19;97875.66;5103096;28;20557;-64
2021/12/28 01:15:02;;;;;;;85.40;31.60;;;;;;;-6.05;75.92;97869.09;5084309;28;20016;-64
2021/12/28 01:17:27;;;;;;;83.47;32.55;;;;;;;-6.01;75.95;97868.50;5105042;28;20024;-65
2021/12/28 01:19:53;;;;;;;78.57;31.35;;;;;;;-5.95;75.79;97866.00;5105567;28;20030;-65
2021/12/28 01:22:19;;;;;;;77.78;31.52;;;;;;;-5.96;75.73;97862.50;5104918;28;20084;-65
2021/12/28 01:24:44;;;;;;;78.72;29.23;;;;;;;-6.06;75.71;97857.59;5103250;28;20026;-65
2021/12/28 01:27:10;;;;;;;85.38;34.33;;;;;;;-6.23;75.29;97841.16;5086132;28;20167;-64
2021/12/28 01:29:35;;;;;;;86.72;31.13;;;;;;;-6.38;75.71;97857.34;5068975;28;20487;-65
2021/12/28 01:32:01;;;;;;;69.25;26.35;;;;;;;-6.44;75.88;97844.81;5105691;28;20035;-64
2021/12/28 01:34:27;;;;;;;71.03;28.33;;;;;;;-6.50;75.46;97840.28;5103726;28;20038;-66
2021/12/28 01:36:53;;;;;;;89.95;32.78;;;;;;;-6.55;75.82;97840.06;5105432;28;20035;-65
2021/12/28 01:39:18;;;;;;;65.45;25.42;;;;;;;-6.52;75.68;97836.97;5086817;28;20035;-65
2021/12/28 01:41:44;;;;;;;76.20;31.13;;;;;;;-6.51;75.97;97839.44;5101889;28;20040;-64
2021/12/28 01:44:11;;;;;;;83.05;31.25;;;;;;;-6.47;75.97;97832.69;5100795;28;20040;-65
2021/12/28 01:46:37;;;;;;;80.13;32.38;;;;;;;-6.43;76.23;97835.78;5104543;28;20479;-64
2021/12/28 01:49:05;;;;;;;71.30;27.95;;;;;;;-6.42;76.13;97842.75;5104429;28;20039;-64
2021/12/28 01:51:32;;;;;;;78.90;30.50;;;;;;;-6.33;76.39;97856.72;5105013;28;20059;-64
2021/12/28 01:53:59;;;;;;;79.55;31.90;;;;;;;-6.24;76.24;97860.03;5102160;28;20023;-64
2021/12/28 01:56:34;;;;;;;69.00;26.65;;;;;;;-6.13;76.43;97851.44;5086568;28;20033;-64
2021/12/28 01:59:00;;;;;;;83.53;33.42;;;;;;;-6.05;76.35;97839.72;5104815;28;20117;-64
2021/12/28 02:01:25;;;;;;;80.40;30.33;;;;;;;-6.01;76.62;97836.47;5102645;28;20016;-64
2021/12/28 02:03:52;;;;;;;89.15;34.78;;;;;;;-5.94;76.31;97830.28;5103050;28;20065;-64
2021/12/28 02:06:17;;;;;;;78.05;31.45;;;;;;;-5.90;76.51;97839.50;5105657;28;20311;-64
2021/12/28 02:08:44;;;;;;;80.50;33.17;;;;;;;-5.84;76.45;97831.50;5105132;28;20472;-64
2021/12/28 02:11:11;;;;;;;99.28;35.70;;;;;;;-5.77;76.45;97836.81;5104296;28;20031;-64
2021/12/28 02:13:37;;;;;;;86.85;34.22;;;;;;;-5.69;76.12;97833.13;5102446;28;20543;-64
2021/12/28 02:16:03;;;;;;;87.93;34.88;;;;;;;-5.62;76.15;97822.44;5104330;28;20043;-64
2021/12/28 02:18:30;;;;;;;81.95;32.75;;;;;;;-5.54;76.27;97830.25;5105184;28;20055;-64
2021/12/28 02:20:58;;;;;;;79.88;31.17;;;;;;;-5.46;76.14;97815.84;5103159;28;20038;-64
2021/12/28 02:23:24;;;;;;;70.50;27.52;;;;;;;-5.38;76.33;97828.97;5099759;28;20028;-67
2021/12/28 02:25:51;;;;;;;82.05;32.90;;;;;;;-5.33;76.54;97823.00;5103916;28;20481;-65
2021/12/28 02:28:17;;;;;;;72.35;30.42;;;;;;;-5.30;76.54;97814.56;5104266;28;20051;-65
2021/12/28 02:30:45;;;;;;;76.03;30.63;;;;;;;-5.27;75.98;97814.94;5104560;28;20407;-65
2021/12/28 02:33:11;;;;;;;70.28;29.60;;;;;;;-5.31;76.23;97818.25;5084969;28;20043;-65
2021/12/28 02:35:37;;;;;;;70.85;28.30;;;;;;;-5.34;76.29;97824.03;5084839;28;20053;-65
2021/12/28 02:38:05;;;;;;;78.80;30.75;;;;;;;-5.32;76.17;97819.28;5103696;28;20035;-65
2021/12/28 02:40:33;;;;;;;78.13;31.17;;;;;;;-5.33;76.16;97823.00;5104022;28;20072;-65
2021/12/28 02:43:00;;;;;;;69.53;28.33;;;;;;;-5.36;75.60;97813.56;5102766;28;20019;-65
2021/12/28 02:45:28;;;;;;;72.97;30.08;;;;;;;-5.40;76.01;97823.81;5101207;28;20104;-65
2021/12/28 02:47:54;;;;;;;76.38;30.30;;;;;;;-5.41;75.84;97816.03;5103772;28;20036;-64
2021/12/28 02:50:24;;;;;;;63.00;24.40;;;;;;;-5.39;75.73;97812.09;5101950;28;20031;-65
2021/12/28 02:52:50;;;;;;;76.15;29.90;;;;;;;-5.41;75.78;97811.50;5103726;28;20553;-66
2021/12/28 02:55:19;;;;;;;75.18;29.38;;;;;;;-5.42;76.17;97806.38;5083674;28;20395;-65
2021/12/28 02:58:05;;;;;;;66.43;27.50;;;;;;;-5.42;76.03;97798.34;5102697;28;20545;-66
2021/12/28 03:00:33;;;;;;;60.42;25.45;;;;;;;-5.39;75.90;97800.59;5100521;28;20036;-65
2021/12/28 03:02:59;;;;;;;73.95;29.90;;;;;;;-5.43;75.63;97794.03;5101703;28;20061;-65
2021/12/28 03:05:25;;;;;;;67.05;26.58;;;;;;;-5.46;76.11;97797.94;5101728;28;20437;-65
2021/12/28 03:07:50;;;;;;;70.47;29.58;;;;;;;-5.49;75.62;97793.00;5100623;28;20080;-65
2021/12/28 03:10:16;;;;;;;71.75;28.05;;;;;;;-5.52;75.63;97793.44;5103515;28;20086;-65
2021/12/28 03:12:41;;;;;;;68.00;27.52;;;;;;;-5.60;76.01;97785.66;5083889;28;20275;-65
2021/12/28 03:15:07;;;;;;;60.65;23.05;;;;;;;-5.63;75.65;97791.41;5099394;28;20076;-63
2021/12/28 03:17:32;;;;;;;58.97;23.90;;;;;;;-5.72;75.84;97786.28;5084247;28;20031;-64
2021/12/28 03:19:58;;;;;;;65.50;26.58;;;;;;;-5.78;75.68;97789.78;5103847;28;20039;-64
2021/12/28 03:22:23;;;;;;;81.43;30.50;;;;;;;-5.82;75.71;97785.88;5103700;28;20110;-63
2021/12/28 03:24:49;;;;;;;99.60;39.63;;;;;;;-5.86;76.11;97792.66;5102057;28;20879;-63
2021/12/28 03:27:14;;;;;;;132.95;48.90;;;;;;;-5.88;75.68;97789.38;5103880;28;20047;-64
2021/12/28 03:29:39;;;;;;;178.82;67.57;;;;;;;-5.88;75.66;97790.19;5108299;27;20044;-64
2021/12/28 03:32:05;;;;;;;175.85;79.22;;;;;;;-5.87;75.83;97780.31;5107868;28;20109;-65
2021/12/28 03:34:30;;;;;;;99.20;40.58;;;;;;;-5.91;75.58;97782.59;5104592;28;20046;-65
2021/12/28 03:36:56;;;;;;;114.60;46.17;;;;;;;-5.92;75.58;97780.16;5106489;28;20085;-65
2021/12/28 03:39:21;;;;;;;149.25;58.42;;;;;;;-5.93;75.71;97781.19;5107129;28;20102;-65
2021/12/28 03:41:47;;;;;;;109.80;47.28;;;;;;;-5.94;75.96;97783.00;5105835;28;20032;-64
2021/12/28 03:44:14;;;;;;;127.18;54.95;;;;;;;-6.00;75.67;97786.53;5105153;28;20046;-66
2021/12/28 03:46:40;;;;;;;159.95;69.38;;;;;;;-6.02;75.94;97786.75;5107064;28;20061;-65
2021/12/28 03:49:05;;;;;;;101.03;44.53;;;;;;;-6.02;76.27;97776.06;5105956;28;20411;-66
2021/12/28 03:51:31;;;;;;;92.72;42.03;;;;;;;-5.99;76.30;97775.63;5107352;28;20482;-66
2021/12/28 03:53:56;;;;;;;91.93;35.15;;;;;;;-5.96;76.02;97776.25;5105470;28;20035;-65
2021/12/28 03:56:23;;;;;;;82.25;32.53;;;;;;;-5.98;76.04;97785.28;5104224;28;20035;-65
2021/12/28 03:58:50;;;;;;;75.00;30.17;;;;;;;-6.00;76.15;97778.53;5086225;28;20168;-65
2021/12/28 04:01:20;;;;;;;90.55;33.95;;;;;;;-6.04;76.42;97782.63;5104943;28;20118;-65
2021/12/28 04:03:46;;;;;;;76.55;31.02;;;;;;;-6.07;76.01;97788.38;5104009;28;20379;-65
2021/12/28 04:06:11;;;;;;;83.15;31.63;;;;;;;-6.09;76.15;97783.25;5087850;28;21312;-64
2021/12/28 04:08:41;;;;;;;78.85;31.58;;;;;;;-6.07;76.16;97789.22;5105797;28;20155;-64
2021/12/28 04:11:25;;;;;;;;;;;;;;;-6.05;75.94;97780.97;5106833;28;20039;-64
2021/12/28 04:13:59;;;;;;;88.85;31.38;;;;;;;-6.06;76.33;97784.69;5103088;28;19973;-63
2021/12/28 04:16:24;;;;;;;89.45;33.20;;;;;;;-6.08;76.39;97781.38;5107006;28;20073;-65
2021/12/28 04:18:51;;;;;;;81.85;31.42;;;;;;;-6.07;75.94;97778.53;5105603;28;20063;-64
2021/12/28 04:21:17;;;;;;;85.30;32.78;;;;;;;-6.06;76.30;97788.19;5100586;27;20039;-64
2021/12/28 04:23:44;;;;;;;107.10;36.35;;;;;;;-6.06;76.56;97790.03;5104124;28;20068;-65
2021/12/28 04:26:10;;;;;;;96.38;35.35;;;;;;;-6.07;76.12;97794.56;5105810;28;20035;-65
2021/12/28 04:28:35;;;;;;;102.80;35.83;;;;;;;-6.09;76.04;97783.25;5103243;28;20016;-64
2021/12/28 04:31:01;;;;;;;77.05;27.73;;;;;;;-6.13;75.85;97784.69;5105867;28;20114;-65
2021/12/28 04:33:26;;;;;;;88.53;32.83;;;;;;;-6.18;75.92;97781.81;5104365;28;20055;-65
2021/12/28 04:35:52;;;;;;;71.90;26.35;;;;;;;-6.21;75.90;97775.03;5088208;28;20446;-64
2021/12/28 04:38:17;;;;;;;88.10;32.42;;;;;;;-6.22;76.22;97773.41;5105999;28;20043;-64
2021/12/28 04:40:43;;;;;;;77.25;29.60;;;;;;;-6.15;76.57;97776.06;5106781;28;20028;-64
2021/12/28 04:43:11;;;;;;;79.35;30.05;;;;;;;-6.14;76.31;97773.22;5106065;28;20035;-63
2021/12/28 04:45:37;;;;;;;76.78;28.77;;;;;;;-6.08;76.18;97774.22;5105088;28;20070;-64
2021/12/28 04:48:04;;;;;;;85.00;32.38;;;;;;;-6.04;76.72;97772.78;5087104;28;20043;-64
2021/12/28 04:50:37;;;;;;;77.97;30.33;;;;;;;-6.02;76.28;97777.91;5106856;27;20369;-64
2021/12/28 04:53:08;;;;;;;81.72;30.33;;;;;;;-6.02;76.63;97776.06;5104254;28;20487;-64
2021/12/28 04:55:34;;;;;;;72.95;27.98;;;;;;;-6.01;76.29;97771.53;5104628;28;20500;-64
2021/12/28 04:57:59;;;;;;;80.07;31.13;;;;;;;-6.06;76.30;97772.16;5105872;28;20036;-64
2021/12/28 05:00:25;;;;;;;87.70;31.27;;;;;;;-6.05;76.29;97765.81;5105313;28;20092;-64
2021/12/28 05:02:50;;;;;;;77.35;29.52;;;;;;;-6.02;76.67;97767.22;5106397;28;20548;-64
2021/12/28 05:05:16;;;;;;;82.20;29.10;;;;;;;-5.95;76.53;97767.22;5104678;28;20059;-64
2021/12/28 05:07:41;;;;;;;80.68;30.65;;;;;;;-5.90;76.44;97764.72;5105681;28;20082;-65
2021/12/28 05:10:08;;;;;;;74.00;29.77;;;;;;;-5.87;76.56;97758.97;5105689;28;20138;-64
2021/12/28 05:12:33;;;;;;;72.70;28.95;;;;;;;-5.81;76.49;97755.47;5086481;28;20027;-64
2021/12/28 05:15:00;;;;;;;67.93;26.63;;;;;;;-5.80;76.45;97754.44;5101736;28;20027;-64
2021/12/28 05:17:27;;;;;;;89.22;32.75;;;;;;;-5.79;76.30;97752.59;5103920;28;20024;-64
2021/12/28 05:19:52;;;;;;;87.18;32.42;;;;;;;-5.78;76.86;97751.56;5105849;28;20499;-64
2021/12/28 05:22:19;;;;;;;73.60;30.13;;;;;;;-5.72;76.94;97754.22;5104608;28;20068;-64
2021/12/28 05:24:44;;;;;;;82.88;30.90;;;;;;;-5.70;76.89;97752.16;5084411;28;20081;-65
2021/12/28 05:27:10;;;;;;;70.38;26.67;;;;;;;-5.71;76.40;97755.06;5105538;28;20552;-65
2021/12/28 05:29:35;;;;;;;84.43;31.52;;;;;;;-5.71;76.65;97752.38;5105257;28;20031;-65
2021/12/28 05:32:01;;;;;;;87.20;31.33;;;;;;;-5.68;76.69;97758.13;5104432;28;20068;-65
2021/12/28 05:34:26;;;;;;;83.38;30.88;;;;;;;-5.63;76.88;97751.34;5103509;28;20110;-64
2021/12/28 05:36:52;;;;;;;77.30;30.48;;;;;;;-5.60;76.50;97748.25;5104592;28;20024;-64
2021/12/28 05:39:18;;;;;;;85.88;31.00;;;;;;;-5.57;76.49;97747.81;5105508;28;20031;-64
2021/12/28 05:41:43;;;;;;;79.72;28.92;;;;;;;-5.56;76.55;97749.47;5086476;27;20020;-64
2021/12/28 05:44:09;;;;;;;70.57;27.20;;;;;;;-5.56;76.66;97754.81;5102902;28;20432;-64
2021/12/28 05:46:34;;;;;;;78.45;29.23;;;;;;;-5.59;76.69;97749.88;5104025;28;20028;-63
2021/12/28 05:49:00;;;;;;;85.18;31.55;;;;;;;-5.61;76.61;97757.28;5104997;28;20023;-64
2021/12/28 05:51:25;;;;;;;82.10;31.65;;;;;;;-5.64;76.30;97736.34;5104172;28;20033;-64
2021/12/28 05:53:50;;;;;;;66.28;27.35;;;;;;;-5.60;76.36;97750.91;5103071;28;20026;-63
2021/12/28 05:56:16;;;;;;;66.40;25.92;;;;;;;-5.53;76.70;97741.03;5105020;28;20403;-64
2021/12/28 05:58:41;;;;;;;72.75;29.25;;;;;;;-5.57;76.64;97745.16;5105022;28;20069;-65
2021/12/28 06:01:08;;;;;;;77.22;31.92;;;;;;;-5.54;76.39;97748.22;5104074;27;20848;-65
2021/12/28 06:03:33;;;;;;;67.82;29.00;;;;;;;-5.46;76.46;97733.81;5101918;28;20055;-65
2021/12/28 06:05:59;;;;;;;81.95;30.70;;;;;;;-5.40;76.52;97740.16;5104363;28;20030;-64
2021/12/28 06:08:25;;;;;;;71.18;27.40;;;;;;;-5.35;76.22;97737.69;5104631;28;20023;-64
2021/12/28 06:10:51;;;;;;;86.13;33.20;;;;;;;-5.30;76.78;97737.88;5104679;27;20507;-65
2021/12/28 06:13:16;;;;;;;83.07;32.75;;;;;;;-5.24;76.46;97733.53;5102147;28;20031;-65
2021/12/28 06:15:42;;;;;;;86.55;32.58;;;;;;;-5.23;76.50;97735.97;5103784;28;20036;-66
2021/12/28 06:18:07;;;;;;;84.13;32.92;;;;;;;-5.24;76.34;97730.84;5103647;28;20032;-65
2021/12/28 06:20:33;;;;;;;76.43;30.92;;;;;;;-5.23;76.44;97745.88;5103566;28;20035;-65
2021/12/28 06:22:58;;;;;;;79.47;31.10;;;;;;;-5.21;76.66;97741.13;5104314;28;20028;-65
2021/12/28 06:25:23;;;;;;;71.47;27.25;;;;;;;-5.21;76.96;97746.47;5103332;28;20031;-65
2021/12/28 06:27:49;;;;;;;84.25;32.95;;;;;;;-5.40;75.68;97745.50;5104435;28;20028;-65
2021/12/28 06:30:16;;;;;;;89.97;32.05;;;;;;;-5.53;75.88;97762.41;5103243;28;20032;-65
2021/12/28 06:32:41;;;;;;;88.45;34.63;;;;;;;-5.58;76.02;97764.88;5104451;28;20077;-64
2021/12/28 06:35:09;;;;;;;81.93;32.17;;;;;;;-5.61;76.18;97766.13;5101233;28;20065;-65
2021/12/28 06:37:34;;;;;;;86.63;32.78;;;;;;;-5.64;76.26;97755.03;5104121;28;20027;-65
2021/12/28 06:40:00;;;;;;;87.43;33.55;;;;;;;-5.65;76.33;97764.88;5103120;28;20385;-64
2021/12/28 06:42:25;;;;;;;89.22;35.80;;;;;;;-5.62;76.22;97761.78;5104344;28;20503;-65
2021/12/28 06:44:52;;;;;;;94.45;36.50;;;;;;;-5.64;76.25;97755.84;5102658;28;20028;-65
2021/12/28 06:47:18;;;;;;;93.63;35.85;;;;;;;-5.65;76.36;97748.84;5103322;28;20630;-64
2021/12/28 06:49:45;;;;;;;88.30;35.00;;;;;;;-5.63;76.50;97754.81;5104185;28;20146;-64
2021/12/28 06:52:11;;;;;;;83.72;32.38;;;;;;;-5.61;76.48;97755.44;5104027;28;20777;-64
2021/12/28 06:54:37;;;;;;;87.25;34.25;;;;;;;-5.59;76.52;97757.91;5102291;28;20061;-65
2021/12/28 06:57:08;;;;;;;83.50;33.05;;;;;;;-5.61;76.30;97760.78;5104065;28;20024;-64
2021/12/28 06:59:37;;;;;;;90.55;37.22;;;;;;;-5.59;75.98;97769.41;5102628;28;20028;-64
2021/12/28 07:02:04;;;;;;;93.05;36.95;;;;;;;-5.55;76.64;97773.28;5104150;28;20051;-64
2021/12/28 07:04:30;;;;;;;103.00;44.08;;;;;;;-5.54;76.08;97763.44;5106553;28;20094;-65
2021/12/28 07:06:56;;;;;;;130.45;59.97;;;;;;;-5.54;75.95;97766.13;5106936;28;20046;-64
2021/12/28 07:09:21;;;;;;;138.38;72.32;;;;;;;-5.51;76.51;97757.69;5106841;28;20562;-64
2021/12/28 07:11:46;;;;;;;110.30;51.92;;;;;;;-5.49;76.36;97768.94;5106511;28;20036;-64
2021/12/28 07:14:12;;;;;;;167.90;89.47;;;;;;;-5.50;76.21;97764.63;5105821;28;20097;-64
2021/12/28 07:16:37;;;;;;;171.00;83.55;;;;;;;-5.49;76.29;97771.63;5106729;28;20035;-64
2021/12/28 07:19:03;;;;;;;387.00;225.43;;;;;;;-5.52;76.07;97761.38;5106451;28;20095;-64
2021/12/28 07:21:28;;;;;;;188.55;84.88;;;;;;;-5.48;76.54;97765.25;5106332;28;20047;-64
2021/12/28 07:23:54;;;;;;;310.75;127.75;;;;;;;-5.42;76.23;97764.41;5104811;28;20369;-64
2021/12/28 07:26:19;;;;;;;542.33;210.55;;;;;;;-5.35;76.52;97764.41;5108218;28;20039;-64
2021/12/28 07:28:45;;;;;;;497.90;194.95;;;;;;;-5.22;76.60;97771.56;5106880;27;20059;-64
2021/12/28 07:31:10;;;;;;;282.80;97.40;;;;;;;-5.09;76.41;97765.34;5106112;28;20047;-64
2021/12/28 07:33:36;;;;;;;325.15;109.60;;;;;;;-4.99;76.39;97767.56;5105457;28;20376;-64
2021/12/28 07:36:01;;;;;;;207.98;70.50;;;;;;;-4.91;76.52;97764.63;5107628;28;20027;-64
2021/12/28 07:38:27;;;;;;;303.15;100.47;;;;;;;-4.85;76.56;97768.31;5106611;27;20503;-64
2021/12/28 07:40:52;;;;;;;274.35;88.97;;;;;;;-4.75;76.70;97763.31;5088746;28;20536;-64
2021/12/28 07:43:17;;;;;;;195.80;67.28;;;;;;;-4.69;76.33;97767.81;5106163;28;20036;-64
2021/12/28 07:45:43;;;;;;;153.82;51.22;;;;;;;-4.64;76.53;97773.34;5105532;28;20258;-64
2021/12/28 07:48:09;;;;;;;177.30;64.68;;;;;;;-4.57;76.33;97778.66;5103594;27;20437;-64
2021/12/28 07:50:34;;;;;;;154.13;58.22;;;;;;;-4.51;76.49;97771.63;5107438;28;20038;-64
2021/12/28 07:53:00;;;;;;;198.30;73.63;;;;;;;-4.44;76.39;97767.03;5107571;28;20062;-64
2021/12/28 07:55:25;;;;;;;165.65;66.35;;;;;;;-4.34;76.55;97772.75;5105568;28;20027;-65
2021/12/28 07:57:50;;;;;;;211.27;77.70;;;;;;;-4.25;76.27;97773.28;5106593;28;20047;-65
2021/12/28 08:00:19;;;;;;;123.43;50.17;;;;;;;-4.18;76.32;97773.25;5107690;28;20068;-64
2021/12/28 08:02:45;;;;;;;173.25;69.78;;;;;;;-4.13;76.07;97757.34;5106520;28;20459;-64
2021/12/28 08:05:13;;;;;;;132.95;49.83;;;;;;;-4.11;76.36;97751.78;5085579;28;20055;-65
2021/12/28 08:07:39;;;;;;;130.30;51.90;;;;;;;-4.09;76.60;97761.25;5105443;28;20100;-64
2021/12/28 08:10:06;;;;;;;113.15;46.28;;;;;;;-4.06;76.14;97755.41;5107297;28;20115;-64
2021/12/28 08:12:32;;;;;;;123.18;51.15;;;;;;;-4.08;76.50;97748.66;5105783;28;20475;-66
2021/12/28 08:14:58;;;;;;;115.03;49.15;;;;;;;-4.01;76.12;97761.97;5104997;28;20024;-64
2021/12/28 08:17:23;;;;;;;87.03;37.67;;;;;;;-3.97;76.33;97763.19;5107710;28;20125;-65
2021/12/28 08:19:49;;;;;;;101.05;42.63;;;;;;;-3.92;75.99;97761.50;5102672;27;20635;-65
2021/12/28 08:22:14;;;;;;;116.97;47.47;;;;;;;-3.84;76.14;97751.53;5104705;27;20114;-64
2021/12/28 08:24:40;;;;;;;109.55;46.15;;;;;;;-3.75;76.55;97748.38;5103211;28;20031;-65
2021/12/28 08:27:05;;;;;;;85.55;35.50;;;;;;;-3.73;76.01;97745.44;5100917;27;20468;-65
2021/12/28 08:29:30;;;;;;;90.40;38.78;;;;;;;-3.73;76.05;97748.13;5103171;28;20020;-65
2021/12/28 08:31:56;;;;;;;100.43;39.97;;;;;;;-3.76;76.08;97749.41;5083819;28;20142;-66
2021/12/28 08:34:21;;;;;;;93.25;36.42;;;;;;;-3.71;75.91;97735.34;5100491;27;20038;-66
2021/12/28 08:36:47;;;;;;;80.72;31.98;;;;;;;-3.71;75.78;97734.53;5104248;28;20096;-66
2021/12/28 08:39:12;;;;;;;88.13;37.38;;;;;;;-3.75;75.52;97742.16;5103695;28;20364;-65
2021/12/28 08:41:37;;;;;;;76.25;31.02;;;;;;;-3.74;75.71;97735.78;5084693;28;20410;-65
2021/12/28 08:44:03;;;;;;;78.72;32.92;;;;;;;-3.69;75.63;97737.81;5102679;27;20047;-66
2021/12/28 08:46:29;;;;;;;92.10;35.78;;;;;;;-3.66;75.81;97735.50;5102992;27;20068;-65
2021/12/28 08:48:55;;;;;;;83.47;35.60;;;;;;;-3.58;75.93;97729.00;5103098;28;20027;-65
2021/12/28 08:51:20;;;;;;;91.85;36.08;;;;;;;-3.55;75.92;97725.06;5103328;28;20144;-66
2021/12/28 08:53:46;;;;;;;89.15;37.25;;;;;;;-3.49;75.75;97729.56;5099786;28;20111;-65
2021/12/28 08:56:11;;;;;;;77.32;33.67;;;;;;;-3.39;75.69;97724.47;5085528;28;20518;-65
2021/12/28 08:58:37;;;;;;;78.15;32.92;;;;;;;-3.35;75.87;97711.44;5097357;28;20053;-66
2021/12/28 09:01:03;;;;;;;79.45;33.63;;;;;;;-3.25;76.03;97711.72;5100902;28;20030;-65
2021/12/28 09:03:29;;;;;;;88.22;36.25;;;;;;;-3.19;75.58;97708.13;5101908;27;20829;-65
2021/12/28 09:05:54;;;;;;;79.88;35.45;;;;;;;-3.09;75.92;97714.84;5085993;28;20061;-66
2021/12/28 09:08:20;;;;;;;82.75;35.30;;;;;;;-3.00;75.71;97711.59;5082942;28;20038;-65
2021/12/28 09:10:46;;;;;;;84.93;35.22;;;;;;;-2.94;75.93;97714.44;5100986;28;20031;-65
2021/12/28 09:13:14;;;;;;;73.88;30.83;;;;;;;-2.91;75.72;97703.25;5102621;27;20034;-66
2021/12/28 09:15:40;;;;;;;75.20;31.35;;;;;;;-2.91;75.41;97690.66;5081812;28;20032;-65
2021/12/28 09:18:05;;;;;;;78.97;33.13;;;;;;;-2.95;75.15;97699.38;5099921;28;20039;-64
2021/12/28 09:20:31;;;;;;;75.88;33.15;;;;;;;-2.95;75.48;97688.63;5101598;27;20028;-65
2021/12/28 09:22:56;;;;;;;65.72;27.33;;;;;;;-2.96;75.23;97679.78;5102538;27;20498;-64
2021/12/28 09:25:23;;;;;;;75.32;35.75;;;;;;;-3.06;74.85;97683.03;5101080;27;20057;-65
2021/12/28 09:27:49;;;;;;;116.30;54.13;;;;;;;-3.12;74.70;97677.72;5100185;28;20028;-65
2021/12/28 09:30:16;;;;;;;93.88;35.00;;;;;;;-3.23;74.72;97682.00;5101814;28;20035;-65
2021/12/28 09:32:42;;;;;;;90.25;41.20;;;;;;;-3.31;74.33;97672.41;5099277;28;20039;-65
2021/12/28 09:35:09;;;;;;;109.78;49.88;;;;;;;-3.34;74.75;97675.53;5096235;27;20024;-65
2021/12/28 09:37:34;;;;;;;87.55;36.40;;;;;;;-3.32;74.72;97674.25;5081827;28;20024;-66
2021/12/28 09:40:01;;;;;;;85.38;34.65;;;;;;;-3.29;75.00;97663.09;5096975;27;20495;-66
2021/12/28 09:42:27;;;;;;;80.63;34.63;;;;;;;-3.28;74.97;97661.25;5081394;28;20484;-67
2021/12/28 09:44:52;;;;;;;75.80;33.30;;;;;;;-3.23;75.16;97661.34;5099104;27;20030;-67
2021/12/28 09:47:19;;;;;;;62.80;28.70;;;;;;;-3.17;75.02;97654.28;5100979;28;21433;-67
2021/12/28 09:49:46;;;;;;;75.88;33.05;;;;;;;-3.14;75.44;97667.25;5100594;28;20031;-67
2021/12/28 09:52:12;;;;;;;71.68;32.25;;;;;;;-3.04;75.00;97647.91;5098705;27;20047;-66
2021/12/28 09:54:38;;;;;;;79.95;34.30;;;;;;;-2.97;75.15;97650.50;5100640;28;20476;-65
2021/12/28 09:57:04;;;;;;;67.60;28.60;;;;;;;-2.97;74.79;97645.94;5101680;28;20122;-63
2021/12/28 09:59:31;;;;;;;65.60;28.15;;;;;;;-2.99;74.82;97643.47;5100094;28;20035;-65
2021/12/28 10:01:59;;;;;;;79.10;34.15;;;;;;;-2.94;74.85;97660.75;5099448;28;20032;-64
2021/12/28 10:04:25;;;;;;;87.97;37.70;;;;;;;-2.85;75.17;97656.72;5096924;28;20051;-64
2021/12/28 10:06:50;;;;;;;74.65;31.70;;;;;;;-2.76;75.29;97644.59;5106251;27;20039;-63
2021/12/28 10:09:22;;;;;;;74.43;29.80;;;;;;;-2.77;74.92;97632.25;5100773;28;20042;-64
2021/12/28 10:11:53;;;;;;;73.55;33.22;;;;;;;-2.74;74.78;97639.00;5099578;28;20050;-65
2021/12/28 10:14:25;;;;;;;72.53;31.77;;;;;;;-2.75;73.97;97635.50;5081026;28;20042;-64
2021/12/28 10:16:54;;;;;;;68.65;29.38;;;;;;;-2.72;74.77;97643.09;5100152;28;20039;-66
2021/12/28 10:19:36;;;;;;;77.05;30.35;;;;;;;-2.80;74.28;97653.34;5101576;28;20032;-66
2021/12/28 10:22:32;;;;;;;68.28;30.25;;;;;;;-2.84;74.58;97663.72;5101390;27;20035;-65
2021/12/28 10:25:01;;;;;;;65.18;27.60;;;;;;;-2.89;74.46;97658.22;5076652;28;20034;-65
2021/12/28 10:27:28;;;;;;;79.38;33.90;;;;;;;-2.87;74.63;97653.44;5101526;28;20166;-65
2021/12/28 10:29:55;;;;;;;75.85;31.70;;;;;;;-2.78;74.96;97638.66;5099439;28;20025;-64
2021/12/28 10:32:28;;;;;;;87.20;35.30;;;;;;;-2.69;74.73;97641.81;5099858;28;20123;-64
2021/12/28 10:35:08;;;;;;;66.53;28.48;;;;;;;-2.55;74.83;97640.56;5097794;28;20035;-65
2021/12/28 10:37:38;;;;;;;66.43;24.92;;;;;;;-2.53;74.47;97629.59;5100310;28;20070;-65
2021/12/28 10:40:08;;;;;;;69.10;29.60;;;;;;;-2.51;74.85;97627.47;5081517;28;20035;-65
2021/12/28 10:42:55;;;;;;;60.08;26.05;;;;;;;-2.52;74.38;97628.53;5101106;28;20813;-65
2021/12/28 10:45:36;;;;;;;64.63;27.45;;;;;;;-2.53;74.39;97621.53;5097844;28;20028;-65
2021/12/28 10:48:23;;;;;;;63.67;27.60;;;;;;;-2.57;74.63;97626.56;5097459;28;20027;-64
2021/12/28 10:51:00;;;;;;;59.65;25.52;;;;;;;-2.55;74.64;97623.63;5100099;28;20039;-64
2021/12/28 10:53:36;;;;;;;64.35;26.98;;;;;;;-2.58;74.28;97610.66;5098534;28;20027;-65
2021/12/28 10:56:04;;;;;;;64.05;28.02;;;;;;;-2.62;74.41;97614.84;5099370;28;20439;-64
2021/12/28 10:58:32;;;;;;;67.07;27.80;;;;;;;-2.64;74.40;97608.91;5079753;28;20016;-70
2021/12/28 11:01:07;;;;;;;60.60;25.83;;;;;;;-2.68;73.72;97608.56;5080307;28;20035;-65
2021/12/28 11:03:34;;;;;;;61.22;27.30;;;;;;;-2.63;74.48;97606.00;5097244;28;20044;-65
2021/12/28 11:06:06;;;;;;;66.28;29.05;;;;;;;-2.57;74.61;97613.13;5082183;28;20080;-63
2021/12/28 11:08:32;;;;;;;58.90;26.35;;;;;;;-2.55;74.46;97602.16;5101211;28;20109;-65
2021/12/28 11:11:01;;;;;;;64.75;28.05;;;;;;;-2.65;74.23;97601.94;5100022;28;20023;-65
2021/12/28 11:13:30;;;;;;;63.88;27.20;;;;;;;-2.68;74.02;97595.13;5100433;28;20523;-65
2021/12/28 11:15:57;;;;;;;61.35;26.65;;;;;;;-2.64;74.23;97595.47;5101790;28;20015;-65
2021/12/28 11:18:34;;;;;;;55.38;25.85;;;;;;;-2.62;74.29;97596.06;5101252;28;20080;-64